sensor_id;sensor_type;location;lat;lon;timestamp;pressure;altitude;pressure_sealevel;temperature;humidity
81379;BME280;70830;42.290;-71.354;2023-10-08T00:01:22;99364.44;;;18.56;79.70
81379;BME280;70830;42.290;-71.354;2023-10-08T00:03:53;99361.63;;;18.58;80.02
81379;BME280;70830;42.290;-71.354;2023-10-08T00:06:23;99359.66;;;18.60;79.95
81379;BME280;70830;42.290;-71.354;2023-10-08T00:08:51;99354.16;;;18.61;79.74
81379;BME280;70830;42.290;-71.354;2023-10-08T00:11:18;99348.69;;;18.63;79.87
81379;BME280;70830;42.290;-71.354;2023-10-08T00:13:44;99340.38;;;18.66;80.18
81379;BME280;70830;42.290;-71.354;2023-10-08T00:16:12;99335.03;;;18.66;79.68
81379;BME280;70830;42.290;-71.354;2023-10-08T00:18:43;99338.69;;;18.65;80.00
81379;BME280;70830;42.290;-71.354;2023-10-08T00:21:20;99337.16;;;18.62;79.73
81379;BME280;70830;42.290;-71.354;2023-10-08T00:23:52;99327.47;;;18.61;79.99
81379;BME280;70830;42.290;-71.354;2023-10-08T00:26:21;99308.69;;;18.53;79.69
81379;BME280;70830;42.290;-71.354;2023-10-08T00:29:00;99316.22;;;18.58;80.36
81379;BME280;70830;42.290;-71.354;2023-10-08T00:31:27;99310.06;;;18.57;80.35
81379;BME280;70830;42.290;-71.354;2023-10-08T00:33:57;99302.75;;;18.59;79.98
81379;BME280;70830;42.290;-71.354;2023-10-08T00:36:23;99298.25;;;18.60;79.94
81379;BME280;70830;42.290;-71.354;2023-10-08T00:38:50;99290.81;;;18.54;79.90
81379;BME280;70830;42.290;-71.354;2023-10-08T00:41:26;99300.22;;;18.58;80.02
81379;BME280;70830;42.290;-71.354;2023-10-08T00:43:58;99294.06;;;18.57;79.82
81379;BME280;70830;42.290;-71.354;2023-10-08T00:46:31;99283.66;;;18.54;79.90
81379;BME280;70830;42.290;-71.354;2023-10-08T00:49:02;99292.34;;;18.56;80.21
81379;BME280;70830;42.290;-71.354;2023-10-08T00:51:51;99286.31;;;18.54;80.04
81379;BME280;70830;42.290;-71.354;2023-10-08T00:54:40;99289.69;;;18.56;80.23
81379;BME280;70830;42.290;-71.354;2023-10-08T00:57:18;99290.81;;;18.54;79.53
81379;BME280;70830;42.290;-71.354;2023-10-08T00:59:50;99294.50;;;18.53;79.96
81379;BME280;70830;42.290;-71.354;2023-10-08T01:02:30;99291.81;;;18.53;80.09
81379;BME280;70830;42.290;-71.354;2023-10-08T01:05:16;99285.09;;;18.49;79.85
81379;BME280;70830;42.290;-71.354;2023-10-08T01:07:46;99290.44;;;18.49;80.24
81379;BME280;70830;42.290;-71.354;2023-10-08T01:10:17;99286.94;;;18.48;80.19
81379;BME280;70830;42.290;-71.354;2023-10-08T01:12:47;99288.47;;;18.51;80.49
81379;BME280;70830;42.290;-71.354;2023-10-08T01:15:33;99278.06;;;18.48;80.07
81379;BME280;70830;42.290;-71.354;2023-10-08T01:18:03;99277.91;;;18.49;79.83
81379;BME280;70830;42.290;-71.354;2023-10-08T01:20:32;99266.53;;;18.47;80.27
81379;BME280;70830;42.290;-71.354;2023-10-08T01:23:14;99272.72;;;18.48;80.88
81379;BME280;70830;42.290;-71.354;2023-10-08T01:25:47;99269.38;;;18.46;80.53
81379;BME280;70830;42.290;-71.354;2023-10-08T01:28:31;99271.19;;;18.45;80.08
81379;BME280;70830;42.290;-71.354;2023-10-08T01:30:59;99262.75;;;18.40;80.51
81379;BME280;70830;42.290;-71.354;2023-10-08T01:33:30;99259.69;;;18.35;80.33
81379;BME280;70830;42.290;-71.354;2023-10-08T01:36:04;99261.38;;;18.36;80.16
81379;BME280;70830;42.290;-71.354;2023-10-08T01:38:33;99261.97;;;18.30;80.48
81379;BME280;70830;42.290;-71.354;2023-10-08T01:40:59;99259.28;;;18.30;80.77
81379;BME280;70830;42.290;-71.354;2023-10-08T01:43:54;99246.38;;;18.25;80.90
81379;BME280;70830;42.290;-71.354;2023-10-08T01:46:19;99242.75;;;18.26;80.56
81379;BME280;70830;42.290;-71.354;2023-10-08T01:48:48;99239.59;;;18.31;80.69
81379;BME280;70830;42.290;-71.354;2023-10-08T01:51:16;99229.25;;;18.28;80.99
81379;BME280;70830;42.290;-71.354;2023-10-08T01:54:00;99240.59;;;18.30;80.39
81379;BME280;70830;42.290;-71.354;2023-10-08T01:56:26;99230.78;;;18.30;80.98
81379;BME280;70830;42.290;-71.354;2023-10-08T01:58:52;99226.25;;;18.31;80.52
81379;BME280;70830;42.290;-71.354;2023-10-08T02:01:21;99226.97;;;18.33;81.14
81379;BME280;70830;42.290;-71.354;2023-10-08T02:03:47;99212.91;;;18.31;80.57
81379;BME280;70830;42.290;-71.354;2023-10-08T02:06:13;99209.56;;;18.29;81.17
81379;BME280;70830;42.290;-71.354;2023-10-08T02:08:39;99204.66;;;18.24;80.84
81379;BME280;70830;42.290;-71.354;2023-10-08T02:11:05;99198.50;;;18.24;80.91
81379;BME280;70830;42.290;-71.354;2023-10-08T02:13:31;99203.53;;;18.27;80.80
81379;BME280;70830;42.290;-71.354;2023-10-08T02:15:57;99198.50;;;18.24;80.47
81379;BME280;70830;42.290;-71.354;2023-10-08T02:18:23;99195.97;;;18.22;81.00
81379;BME280;70830;42.290;-71.354;2023-10-08T02:20:52;99189.41;;;18.17;80.87
81379;BME280;70830;42.290;-71.354;2023-10-08T02:23:18;99192.63;;;18.20;81.12
81379;BME280;70830;42.290;-71.354;2023-10-08T02:25:44;99183.75;;;18.20;81.14
81379;BME280;70830;42.290;-71.354;2023-10-08T02:28:10;99175.31;;;18.24;81.16
81379;BME280;70830;42.290;-71.354;2023-10-08T02:30:42;99174.19;;;18.27;81.30
81379;BME280;70830;42.290;-71.354;2023-10-08T02:33:09;99169.53;;;18.29;81.13
81379;BME280;70830;42.290;-71.354;2023-10-08T02:35:45;99164.88;;;18.31;81.01
81379;BME280;70830;42.290;-71.354;2023-10-08T02:38:12;99161.09;;;18.33;81.24
81379;BME280;70830;42.290;-71.354;2023-10-08T02:40:39;99148.88;;;18.31;81.22
81379;BME280;70830;42.290;-71.354;2023-10-08T02:43:14;99162.53;;;18.28;81.12
81379;BME280;70830;42.290;-71.354;2023-10-08T02:45:42;99157.28;;;18.09;78.89
81379;BME280;70830;42.290;-71.354;2023-10-08T02:48:12;99153.91;;;17.80;77.72
81379;BME280;70830;42.290;-71.354;2023-10-08T02:50:39;99147.09;;;17.48;76.52
81379;BME280;70830;42.290;-71.354;2023-10-08T02:53:05;99154.00;;;17.13;77.92
81379;BME280;70830;42.290;-71.354;2023-10-08T02:55:39;99149.66;;;16.83;78.90
81379;BME280;70830;42.290;-71.354;2023-10-08T02:58:10;99150.78;;;16.61;79.44
81379;BME280;70830;42.290;-71.354;2023-10-08T03:00:48;99144.25;;;16.45;79.20
81379;BME280;70830;42.290;-71.354;2023-10-08T03:03:15;99139.47;;;16.29;80.00
81379;BME280;70830;42.290;-71.354;2023-10-08T03:05:49;99138.88;;;16.16;79.65
81379;BME280;70830;42.290;-71.354;2023-10-08T03:08:17;99133.38;;;15.98;80.34
81379;BME280;70830;42.290;-71.354;2023-10-08T03:10:50;99134.44;;;15.86;80.51
81379;BME280;70830;42.290;-71.354;2023-10-08T03:13:23;99135.38;;;15.76;80.59
81379;BME280;70830;42.290;-71.354;2023-10-08T03:15:51;99135.06;;;15.69;80.75
81379;BME280;70830;42.290;-71.354;2023-10-08T03:18:27;99140.66;;;15.66;80.89
81379;BME280;70830;42.290;-71.354;2023-10-08T03:21:03;99130.69;;;15.59;80.98
81379;BME280;70830;42.290;-71.354;2023-10-08T03:23:30;99136.22;;;15.46;81.30
81379;BME280;70830;42.290;-71.354;2023-10-08T03:26:01;99133.84;;;15.32;80.83
81379;BME280;70830;42.290;-71.354;2023-10-08T03:28:37;99131.00;;;15.24;80.78
81379;BME280;70830;42.290;-71.354;2023-10-08T03:31:04;99121.72;;;15.18;81.11
81379;BME280;70830;42.290;-71.354;2023-10-08T03:33:39;99128.13;;;15.16;81.42
81379;BME280;70830;42.290;-71.354;2023-10-08T03:36:07;99117.19;;;15.09;81.29
81379;BME280;70830;42.290;-71.354;2023-10-08T03:38:47;99113.28;;;15.04;81.04
81379;BME280;70830;42.290;-71.354;2023-10-08T03:41:23;99116.41;;;14.98;81.30
81379;BME280;70830;42.290;-71.354;2023-10-08T03:43:55;99115.00;;;14.94;81.02
81379;BME280;70830;42.290;-71.354;2023-10-08T03:46:30;99114.81;;;14.86;81.27
81379;BME280;70830;42.290;-71.354;2023-10-08T03:49:00;99109.16;;;14.79;81.15
81379;BME280;70830;42.290;-71.354;2023-10-08T03:51:31;99101.59;;;14.75;81.76
81379;BME280;70830;42.290;-71.354;2023-10-08T03:54:08;99092.59;;;14.66;82.35
81379;BME280;70830;42.290;-71.354;2023-10-08T03:56:34;99096.19;;;14.65;82.24
81379;BME280;70830;42.290;-71.354;2023-10-08T03:59:05;99088.91;;;14.57;82.50
81379;BME280;70830;42.290;-71.354;2023-10-08T04:01:45;99085.78;;;14.52;82.19
81379;BME280;70830;42.290;-71.354;2023-10-08T04:04:11;99093.75;;;14.41;81.89
81379;BME280;70830;42.290;-71.354;2023-10-08T04:06:43;99092.94;;;14.30;82.40
81379;BME280;70830;42.290;-71.354;2023-10-08T04:09:20;99093.16;;;14.27;82.25
81379;BME280;70830;42.290;-71.354;2023-10-08T04:11:46;99071.88;;;14.17;82.94
81379;BME280;70830;42.290;-71.354;2023-10-08T04:14:13;99093.56;;;14.11;81.84
81379;BME280;70830;42.290;-71.354;2023-10-08T04:16:42;99092.75;;;14.00;81.78
81379;BME280;70830;42.290;-71.354;2023-10-08T04:19:12;99093.34;;;13.92;82.38
81379;BME280;70830;42.290;-71.354;2023-10-08T04:21:39;99088.28;;;13.89;82.04
81379;BME280;70830;42.290;-71.354;2023-10-08T04:24:08;99072.75;;;13.84;81.78
81379;BME280;70830;42.290;-71.354;2023-10-08T04:26:37;99076.63;;;13.80;82.08
81379;BME280;70830;42.290;-71.354;2023-10-08T04:29:06;99083.16;;;13.76;82.17
81379;BME280;70830;42.290;-71.354;2023-10-08T04:31:35;99082.91;;;13.68;81.93
81379;BME280;70830;42.290;-71.354;2023-10-08T04:34:05;99081.22;;;13.67;81.65
81379;BME280;70830;42.290;-71.354;2023-10-08T04:36:48;99080.16;;;13.59;81.63
81379;BME280;70830;42.290;-71.354;2023-10-08T04:39:27;99074.34;;;13.54;81.58
81379;BME280;70830;42.290;-71.354;2023-10-08T04:41:59;99071.13;;;13.50;81.45
81379;BME280;70830;42.290;-71.354;2023-10-08T04:44:33;99057.25;;;13.47;82.49
81379;BME280;70830;42.290;-71.354;2023-10-08T04:46:59;99063.53;;;13.46;81.93
81379;BME280;70830;42.290;-71.354;2023-10-08T04:49:31;99053.31;;;13.41;81.95
81379;BME280;70830;42.290;-71.354;2023-10-08T04:52:05;99039.72;;;13.35;81.37
81379;BME280;70830;42.290;-71.354;2023-10-08T04:54:41;99051.63;;;13.40;81.69
81379;BME280;70830;42.290;-71.354;2023-10-08T04:57:12;99051.88;;;13.37;82.02
81379;BME280;70830;42.290;-71.354;2023-10-08T04:59:45;99058.13;;;13.36;80.93
81379;BME280;70830;42.290;-71.354;2023-10-08T05:02:12;99039.59;;;13.25;81.58
81379;BME280;70830;42.290;-71.354;2023-10-08T05:04:39;99056.69;;;13.32;81.92
81379;BME280;70830;42.290;-71.354;2023-10-08T05:07:17;99054.38;;;13.28;81.28
81379;BME280;70830;42.290;-71.354;2023-10-08T05:09:47;99048.25;;;13.27;81.11
81379;BME280;70830;42.290;-71.354;2023-10-08T05:12:29;99058.00;;;13.27;80.79
81379;BME280;70830;42.290;-71.354;2023-10-08T05:15:11;99060.66;;;13.27;81.40
81379;BME280;70830;42.290;-71.354;2023-10-08T05:17:44;99058.97;;;13.26;80.98
81379;BME280;70830;42.290;-71.354;2023-10-08T05:20:17;99045.84;;;13.24;80.03
81379;BME280;70830;42.290;-71.354;2023-10-08T05:23:10;99050.16;;;13.25;80.43
81379;BME280;70830;42.290;-71.354;2023-10-08T05:25:55;99051.59;;;13.18;80.90
81379;BME280;70830;42.290;-71.354;2023-10-08T05:28:31;99060.25;;;13.20;80.85
81379;BME280;70830;42.290;-71.354;2023-10-08T05:31:08;99067.59;;;13.16;79.37
81379;BME280;70830;42.290;-71.354;2023-10-08T05:33:41;99077.59;;;13.13;79.77
81379;BME280;70830;42.290;-71.354;2023-10-08T05:36:25;99086.34;;;13.13;80.24
81379;BME280;70830;42.290;-71.354;2023-10-08T05:39:16;99083.72;;;13.13;80.04
81379;BME280;70830;42.290;-71.354;2023-10-08T05:42:00;99087.22;;;13.14;80.15
81379;BME280;70830;42.290;-71.354;2023-10-08T05:44:40;99083.13;;;13.10;79.82
81379;BME280;70830;42.290;-71.354;2023-10-08T05:47:15;99087.34;;;13.12;79.43
81379;BME280;70830;42.290;-71.354;2023-10-08T05:50:05;99085.88;;;13.08;79.35
81379;BME280;70830;42.290;-71.354;2023-10-08T05:52:44;99088.75;;;13.05;79.92
81379;BME280;70830;42.290;-71.354;2023-10-08T05:55:19;99089.59;;;13.06;80.10
81379;BME280;70830;42.290;-71.354;2023-10-08T05:58:02;99092.84;;;13.09;80.06
81379;BME280;70830;42.290;-71.354;2023-10-08T06:00:47;99095.50;;;13.09;79.64
81379;BME280;70830;42.290;-71.354;2023-10-08T06:03:19;99083.97;;;13.10;79.47
81379;BME280;70830;42.290;-71.354;2023-10-08T06:06:08;99088.41;;;13.10;79.82
81379;BME280;70830;42.290;-71.354;2023-10-08T06:08:38;99075.41;;;13.07;79.80
81379;BME280;70830;42.290;-71.354;2023-10-08T06:11:22;99084.69;;;13.12;78.85
81379;BME280;70830;42.290;-71.354;2023-10-08T06:14:06;99078.78;;;13.09;78.65
81379;BME280;70830;42.290;-71.354;2023-10-08T06:17:04;99078.38;;;13.02;78.30
81379;BME280;70830;42.290;-71.354;2023-10-08T06:19:50;99078.50;;;13.01;79.39
81379;BME280;70830;42.290;-71.354;2023-10-08T06:22:18;99079.88;;;13.06;78.94
81379;BME280;70830;42.290;-71.354;2023-10-08T06:24:49;99064.66;;;12.97;78.16
81379;BME280;70830;42.290;-71.354;2023-10-08T06:27:15;99057.56;;;12.98;78.21
81379;BME280;70830;42.290;-71.354;2023-10-08T06:29:42;99054.91;;;12.98;77.69
81379;BME280;70830;42.290;-71.354;2023-10-08T06:32:10;99062.97;;;12.96;76.93
81379;BME280;70830;42.290;-71.354;2023-10-08T06:34:37;99071.88;;;12.95;77.90
81379;BME280;70830;42.290;-71.354;2023-10-08T06:37:05;99067.53;;;12.94;78.10
81379;BME280;70830;42.290;-71.354;2023-10-08T06:39:33;99062.13;;;12.96;77.57
81379;BME280;70830;42.290;-71.354;2023-10-08T06:42:13;99062.97;;;12.96;77.46
81379;BME280;70830;42.290;-71.354;2023-10-08T06:44:44;99055.50;;;12.90;77.63
81379;BME280;70830;42.290;-71.354;2023-10-08T06:47:13;99054.66;;;12.90;77.16
81379;BME280;70830;42.290;-71.354;2023-10-08T06:49:42;99056.72;;;12.86;76.89
81379;BME280;70830;42.290;-71.354;2023-10-08T06:52:09;99055.50;;;12.79;77.05
81379;BME280;70830;42.290;-71.354;2023-10-08T06:54:39;99068.00;;;12.77;76.89
81379;BME280;70830;42.290;-71.354;2023-10-08T06:57:04;99079.38;;;12.78;76.52
81379;BME280;70830;42.290;-71.354;2023-10-08T06:59:39;99089.25;;;12.76;76.86
81379;BME280;70830;42.290;-71.354;2023-10-08T07:02:08;99096.09;;;12.78;75.97
81379;BME280;70830;42.290;-71.354;2023-10-08T07:04:36;99091.78;;;12.77;76.10
81379;BME280;70830;42.290;-71.354;2023-10-08T07:07:01;99098.66;;;12.80;75.11
81379;BME280;70830;42.290;-71.354;2023-10-08T07:09:27;99091.88;;;12.76;73.33
81379;BME280;70830;42.290;-71.354;2023-10-08T07:11:57;99089.75;;;12.81;74.25
81379;BME280;70830;42.290;-71.354;2023-10-08T07:14:27;99097.09;;;12.77;73.90
81379;BME280;70830;42.290;-71.354;2023-10-08T07:16:58;99094.66;;;12.74;72.66
81379;BME280;70830;42.290;-71.354;2023-10-08T07:19:29;99084.63;;;12.67;72.22
81379;BME280;70830;42.290;-71.354;2023-10-08T07:22:01;99088.59;;;12.61;72.28
81379;BME280;70830;42.290;-71.354;2023-10-08T07:24:43;99108.06;;;12.60;73.44
81379;BME280;70830;42.290;-71.354;2023-10-08T07:27:17;99102.28;;;12.55;72.72
81379;BME280;70830;42.290;-71.354;2023-10-08T07:29:48;99109.91;;;12.47;72.31
81379;BME280;70830;42.290;-71.354;2023-10-08T07:32:14;99100.53;;;12.43;71.75
81379;BME280;70830;42.290;-71.354;2023-10-08T07:34:44;99097.38;;;12.38;72.42
81379;BME280;70830;42.290;-71.354;2023-10-08T07:37:10;99093.28;;;12.34;71.75
81379;BME280;70830;42.290;-71.354;2023-10-08T07:39:37;99089.41;;;12.27;72.24
81379;BME280;70830;42.290;-71.354;2023-10-08T07:42:12;99106.34;;;12.24;72.05
81379;BME280;70830;42.290;-71.354;2023-10-08T07:44:39;99111.19;;;12.18;72.40
81379;BME280;70830;42.290;-71.354;2023-10-08T07:47:06;99116.47;;;12.18;71.50
81379;BME280;70830;42.290;-71.354;2023-10-08T07:49:38;99105.13;;;12.05;71.52
81379;BME280;70830;42.290;-71.354;2023-10-08T07:52:04;99124.47;;;12.05;72.64
81379;BME280;70830;42.290;-71.354;2023-10-08T07:54:31;99144.88;;;12.03;72.69
81379;BME280;70830;42.290;-71.354;2023-10-08T07:57:01;99141.38;;;12.03;72.50
81379;BME280;70830;42.290;-71.354;2023-10-08T07:59:41;99154.38;;;12.06;72.86
81379;BME280;70830;42.290;-71.354;2023-10-08T08:02:08;99153.13;;;11.99;72.98
81379;BME280;70830;42.290;-71.354;2023-10-08T08:04:42;99165.25;;;12.01;72.33
81379;BME280;70830;42.290;-71.354;2023-10-08T08:07:16;99159.38;;;11.98;72.95
81379;BME280;70830;42.290;-71.354;2023-10-08T08:09:45;99156.28;;;11.91;71.71
81379;BME280;70830;42.290;-71.354;2023-10-08T08:12:18;99153.97;;;11.87;71.73
81379;BME280;70830;42.290;-71.354;2023-10-08T08:14:45;99168.59;;;11.80;72.00
81379;BME280;70830;42.290;-71.354;2023-10-08T08:17:11;99175.00;;;11.75;71.08
81379;BME280;70830;42.290;-71.354;2023-10-08T08:19:44;99177.22;;;11.69;72.16
81379;BME280;70830;42.290;-71.354;2023-10-08T08:22:13;99187.13;;;11.65;71.99
81379;BME280;70830;42.290;-71.354;2023-10-08T08:24:53;99184.06;;;11.59;72.54
81379;BME280;70830;42.290;-71.354;2023-10-08T08:27:21;99181.56;;;11.57;71.66
81379;BME280;70830;42.290;-71.354;2023-10-08T08:29:51;99183.66;;;11.52;72.55
81379;BME280;70830;42.290;-71.354;2023-10-08T08:32:22;99186.00;;;11.44;71.83
81379;BME280;70830;42.290;-71.354;2023-10-08T08:34:49;99184.28;;;11.43;72.46
81379;BME280;70830;42.290;-71.354;2023-10-08T08:37:18;99193.44;;;11.38;72.27
81379;BME280;70830;42.290;-71.354;2023-10-08T08:39:44;99181.53;;;11.32;72.60
81379;BME280;70830;42.290;-71.354;2023-10-08T08:42:11;99196.50;;;11.32;73.12
81379;BME280;70830;42.290;-71.354;2023-10-08T08:44:43;99195.16;;;11.26;72.92
81379;BME280;70830;42.290;-71.354;2023-10-08T08:47:12;99194.50;;;11.23;73.14
81379;BME280;70830;42.290;-71.354;2023-10-08T08:49:44;99196.50;;;11.19;73.55
81379;BME280;70830;42.290;-71.354;2023-10-08T08:52:13;99200.19;;;11.17;73.33
81379;BME280;70830;42.290;-71.354;2023-10-08T08:54:41;99201.13;;;11.16;74.08
81379;BME280;70830;42.290;-71.354;2023-10-08T08:57:08;99206.63;;;11.13;73.65
81379;BME280;70830;42.290;-71.354;2023-10-08T08:59:53;99205.22;;;11.07;74.11
81379;BME280;70830;42.290;-71.354;2023-10-08T09:02:19;99219.56;;;11.03;73.96
81379;BME280;70830;42.290;-71.354;2023-10-08T09:04:48;99222.31;;;11.01;74.06
81379;BME280;70830;42.290;-71.354;2023-10-08T09:07:14;99223.34;;;10.99;74.22
81379;BME280;70830;42.290;-71.354;2023-10-08T09:09:40;99225.16;;;10.98;74.56
81379;BME280;70830;42.290;-71.354;2023-10-08T09:12:07;99229.69;;;10.96;74.53
81379;BME280;70830;42.290;-71.354;2023-10-08T09:14:36;99236.97;;;10.93;74.28
81379;BME280;70830;42.290;-71.354;2023-10-08T09:17:05;99247.28;;;10.96;75.05
81379;BME280;70830;42.290;-71.354;2023-10-08T09:19:38;99233.66;;;10.89;74.61
81379;BME280;70830;42.290;-71.354;2023-10-08T09:22:11;99247.50;;;10.93;74.57
81379;BME280;70830;42.290;-71.354;2023-10-08T09:24:39;99258.25;;;10.90;75.46
81379;BME280;70830;42.290;-71.354;2023-10-08T09:27:10;99253.06;;;10.88;74.75
81379;BME280;70830;42.290;-71.354;2023-10-08T09:29:44;99248.63;;;10.89;74.92
81379;BME280;70830;42.290;-71.354;2023-10-08T09:32:11;99241.50;;;10.91;75.16
81379;BME280;70830;42.290;-71.354;2023-10-08T09:34:39;99252.22;;;10.88;75.74
81379;BME280;70830;42.290;-71.354;2023-10-08T09:37:05;99236.59;;;10.85;75.35
81379;BME280;70830;42.290;-71.354;2023-10-08T09:39:33;99247.13;;;10.85;75.93
81379;BME280;70830;42.290;-71.354;2023-10-08T09:42:01;99241.88;;;10.85;75.19
81379;BME280;70830;42.290;-71.354;2023-10-08T09:44:31;99254.97;;;10.86;76.40
81379;BME280;70830;42.290;-71.354;2023-10-08T09:47:05;99248.00;;;10.85;76.26
81379;BME280;70830;42.290;-71.354;2023-10-08T09:52:16;99259.69;;;10.81;75.33
81379;BME280;70830;42.290;-71.354;2023-10-08T09:54:56;99262.22;;;10.83;75.60
81379;BME280;70830;42.290;-71.354;2023-10-08T09:57:25;99262.44;;;10.80;76.39
81379;BME280;70830;42.290;-71.354;2023-10-08T09:59:52;99270.34;;;10.80;76.22
81379;BME280;70830;42.290;-71.354;2023-10-08T10:02:19;99269.28;;;10.82;75.43
81379;BME280;70830;42.290;-71.354;2023-10-08T10:04:51;99281.81;;;10.79;75.04
81379;BME280;70830;42.290;-71.354;2023-10-08T10:07:19;99281.72;;;10.80;75.29
81379;BME280;70830;42.290;-71.354;2023-10-08T10:09:50;99285.94;;;10.83;75.86
81379;BME280;70830;42.290;-71.354;2023-10-08T10:12:27;99285.94;;;10.83;74.97
81379;BME280;70830;42.290;-71.354;2023-10-08T10:14:57;99281.81;;;10.79;75.38
81379;BME280;70830;42.290;-71.354;2023-10-08T10:17:28;99287.28;;;10.76;75.57
81379;BME280;70830;42.290;-71.354;2023-10-08T10:20:00;99289.09;;;10.75;74.71
81379;BME280;70830;42.290;-71.354;2023-10-08T10:22:30;99284.84;;;10.73;75.04
81379;BME280;70830;42.290;-71.354;2023-10-08T10:24:59;99291.16;;;10.70;75.20
81379;BME280;70830;42.290;-71.354;2023-10-08T10:27:29;99294.66;;;10.71;74.67
81379;BME280;70830;42.290;-71.354;2023-10-08T10:30:05;99286.19;;;10.66;74.41
81379;BME280;70830;42.290;-71.354;2023-10-08T10:32:35;99313.94;;;10.71;74.36
81379;BME280;70830;42.290;-71.354;2023-10-08T10:35:01;99306.13;;;10.70;74.50
81379;BME280;70830;42.290;-71.354;2023-10-08T10:37:37;99313.94;;;10.71;74.90
81379;BME280;70830;42.290;-71.354;2023-10-08T10:40:23;99320.91;;;10.72;74.74
81379;BME280;70830;42.290;-71.354;2023-10-08T10:43:05;99321.00;;;10.71;74.36
81379;BME280;70830;42.290;-71.354;2023-10-08T10:45:41;99331.44;;;10.72;74.49
81379;BME280;70830;42.290;-71.354;2023-10-08T10:48:09;99335.00;;;10.71;74.18
81379;BME280;70830;42.290;-71.354;2023-10-08T10:50:51;99335.00;;;10.71;74.04
81379;BME280;70830;42.290;-71.354;2023-10-08T10:53:36;99348.94;;;10.73;73.52
81379;BME280;70830;42.290;-71.354;2023-10-08T10:56:14;99346.13;;;10.76;72.85
81379;BME280;70830;42.290;-71.354;2023-10-08T10:59:04;99361.75;;;10.79;73.38
81379;BME280;70830;42.290;-71.354;2023-10-08T11:01:53;99360.06;;;10.78;73.54
81379;BME280;70830;42.290;-71.354;2023-10-08T11:04:31;99371.34;;;10.80;72.90
81379;BME280;70830;42.290;-71.354;2023-10-08T11:06:57;99364.41;;;10.79;73.04
81379;BME280;70830;42.290;-71.354;2023-10-08T11:09:27;99366.94;;;10.81;72.84
81379;BME280;70830;42.290;-71.354;2023-10-08T11:12:03;99380.69;;;10.86;73.23
81379;BME280;70830;42.290;-71.354;2023-10-08T11:14:40;99387.63;;;10.87;73.70
81379;BME280;70830;42.290;-71.354;2023-10-08T11:17:17;99397.25;;;10.88;72.85
81379;BME280;70830;42.290;-71.354;2023-10-08T11:19:46;99392.91;;;10.87;72.83
81379;BME280;70830;42.290;-71.354;2023-10-08T11:22:12;99408.44;;;10.91;72.79
81379;BME280;70830;42.290;-71.354;2023-10-08T11:24:48;99415.97;;;10.97;72.18
81379;BME280;70830;42.290;-71.354;2023-10-08T11:27:17;99420.00;;;11.03;72.41
81379;BME280;70830;42.290;-71.354;2023-10-08T11:29:55;99415.25;;;11.22;72.20
81379;BME280;70830;42.290;-71.354;2023-10-08T11:32:26;99429.13;;;11.52;69.88
81379;BME280;70830;42.290;-71.354;2023-10-08T11:34:56;99434.13;;;11.84;70.06
81379;BME280;70830;42.290;-71.354;2023-10-08T11:37:32;99437.16;;;12.17;67.98
81379;BME280;70830;42.290;-71.354;2023-10-08T11:40:02;99446.06;;;12.41;66.96
81379;BME280;70830;42.290;-71.354;2023-10-08T11:42:43;99441.19;;;12.60;66.30
81379;BME280;70830;42.290;-71.354;2023-10-08T11:45:16;99450.44;;;12.80;64.79
81379;BME280;70830;42.290;-71.354;2023-10-08T11:47:55;99441.09;;;12.99;65.41
81379;BME280;70830;42.290;-71.354;2023-10-08T11:50:26;99451.34;;;13.16;64.26
81379;BME280;70830;42.290;-71.354;2023-10-08T11:53:02;99459.06;;;13.56;63.52
81379;BME280;70830;42.290;-71.354;2023-10-08T11:55:32;99464.31;;;13.92;62.40
81379;BME280;70830;42.290;-71.354;2023-10-08T11:58:04;99471.47;;;14.26;62.39
81379;BME280;70830;42.290;-71.354;2023-10-08T12:00:37;99470.34;;;14.52;61.17
81379;BME280;70830;42.290;-71.354;2023-10-08T12:03:13;99468.97;;;14.36;59.54
81379;BME280;70830;42.290;-71.354;2023-10-08T12:05:47;99481.22;;;14.60;61.18
81379;BME280;70830;42.290;-71.354;2023-10-08T12:08:18;99478.72;;;14.70;57.85
81379;BME280;70830;42.290;-71.354;2023-10-08T12:10:46;99486.09;;;14.78;58.62
81379;BME280;70830;42.290;-71.354;2023-10-08T12:13:14;99496.81;;;14.87;57.55
81379;BME280;70830;42.290;-71.354;2023-10-08T12:15:44;99495.72;;;14.90;59.12
81379;BME280;70830;42.290;-71.354;2023-10-08T12:18:10;99494.31;;;14.97;58.86
81379;BME280;70830;42.290;-71.354;2023-10-08T12:20:52;99491.78;;;15.17;57.95
81379;BME280;70830;42.290;-71.354;2023-10-08T12:23:19;99507.22;;;15.34;58.68
81379;BME280;70830;42.290;-71.354;2023-10-08T12:25:55;99493.34;;;15.53;57.10
81379;BME280;70830;42.290;-71.354;2023-10-08T12:28:22;99512.28;;;15.71;56.77
81379;BME280;70830;42.290;-71.354;2023-10-08T12:30:51;99511.31;;;15.61;54.26
81379;BME280;70830;42.290;-71.354;2023-10-08T12:33:22;99511.69;;;15.67;54.51
81379;BME280;70830;42.290;-71.354;2023-10-08T12:35:52;99511.44;;;15.70;55.65
81379;BME280;70830;42.290;-71.354;2023-10-08T12:38:21;99507.06;;;15.80;55.15
81379;BME280;70830;42.290;-71.354;2023-10-08T12:40:51;99511.13;;;16.06;53.58
81379;BME280;70830;42.290;-71.354;2023-10-08T12:43:20;99519.78;;;16.20;53.50
81379;BME280;70830;42.290;-71.354;2023-10-08T12:45:49;99524.91;;;16.32;51.83
81379;BME280;70830;42.290;-71.354;2023-10-08T12:48:24;99525.81;;;16.42;51.25
81379;BME280;70830;42.290;-71.354;2023-10-08T12:50:52;99531.13;;;16.74;53.26
81379;BME280;70830;42.290;-71.354;2023-10-08T12:53:26;99540.44;;;17.30;51.87
81379;BME280;70830;42.290;-71.354;2023-10-08T12:56:05;99549.06;;;17.43;49.89
81379;BME280;70830;42.290;-71.354;2023-10-08T12:58:33;99543.19;;;17.49;47.88
81379;BME280;70830;42.290;-71.354;2023-10-08T13:01:20;99547.16;;;17.95;50.18
81379;BME280;70830;42.290;-71.354;2023-10-08T13:03:46;99550.63;;;18.54;48.86
81379;BME280;70830;42.290;-71.354;2023-10-08T13:06:17;99536.16;;;18.66;46.26
81379;BME280;70830;42.290;-71.354;2023-10-08T13:09:10;99549.34;;;18.77;46.15